Historyczne dane pomiarowe

Dodano dane terminowe – wersja testowa.

Dane z okresu 1951-2019

Wersja bazy: 1.34 [2019-03-16, lista zmian], aktualizacja planowana na 2019-04-15

Dane meteo z obszaru Polski uzyskane na podstawie danych udostępnionych przez Instytut Meteorologii i Gospodarki Wodnej – Państwowy Instytut Badawczy.

 

Wybierz Datę:    

       

TemperaturaWilgotnośćWiatrCiśnienieOpadyŚniegCzas trwania zjawisk
 Stacja t tx tn tng RH VA  wxwx mslp ppp RRR   cm mm wxwxwxwxwxwxwx
1999-08-14 16.9 21.9 11.8 10.2 69.5- 8.0 3.3---- 0.0------------
1999-08-13 16.8 21.9 14.2 13.4 73.3- 6.7 4.0---- 0.0------------
1999-08-12 16.8 20.5 12.7 11.6 71.8- 7.7 3.0---- 0.0------------
1999-08-11 19.9 25.8 15.2 12.2 78.5- 8.0 3.0---- 0.0------------
1999-08-10 20.9 28.4 14.6 12.5 82.0- 7.3 2.0---- 0.9------------
1999-08-09 23.5 28.8 18.3 16.5 69.8- 8.0 2.3---- 0.0------------
1999-08-08 22.2 27.9 16.6 14.5 84.5- 8.0 2.0---- 0.2------------
1999-08-07 21.3 28.6 12.6 10.5 72.0- 7.7 2.7---- 0.5------------
1999-08-06 20.3 27.3 13.3 11.4 73.8- 6.3 1.3---- 0.0------------
1999-08-05 19.5 27.7 10.8 8.7 71.0- 7.7 1.0---- 0.0------------
1999-08-04 19.0 26.4 10.1 8.4 67.3- 6.0 2.7---- 0.0------------
1999-08-03 18.5 26.6 9.4 5.7 68.0- 6.7 1.7---- 0.0------------
1999-08-02 18.4 26.0 9.6 6.3 65.8- 6.0 2.3---- 0.0------------
1999-08-01 19.3 25.9 11.1 9.3 59.8- 5.7 2.7---- 0.0------------
1999-07-31 20.1 27.5 11.2 6.9 58.5- 4.7 4.0---- 0.0------------
1999-07-30 19.2 25.8 10.6 6.5 67.3- 3.7 3.7---- 0.0------------
1999-07-29 18.7 25.3 11.4 6.7 67.0- 5.0 2.7---- 0.0------------
1999-07-28 17.7 24.1 11.7 7.5 76.5- 7.3 3.0---- 0.0------------
1999-07-27 18.6 23.5 14.5 5.3 66.0- 4.3 3.7---- 0.0------------
1999-07-26 21.2 28.3 16.3 13.9 81.8- 6.7 2.0---- 0.0------------
1999-07-25 19.2 25.0 12.4 10.0 78.8- 6.3 2.3---- 0.0------------
1999-07-24 18.1 22.3 13.8 11.3 76.5- 5.3 2.7---- 0.0------------
1999-07-23 17.7 21.6 12.9 9.0 88.0- 8.0 1.0---- 0.0------------
1999-07-22 20.3 25.9 17.4 14.7 82.8- 8.0 3.7---- 0.0------------
1999-07-21 23.9 29.1 18.0 15.0 66.8- 4.7 3.3---- 3.0------------
1999-07-20 22.8 30.1 13.7 10.6 75.3- 3.0 1.0---- 0.0------------
1999-07-19 23.0 28.6 16.5 12.6 65.3- 5.3 2.7---- 0.0------------
1999-07-18 19.8 26.4 11.3 8.8 82.3- 6.7 1.3---- 0.0------------
1999-07-17 18.1 23.3 10.6 6.9 69.0- 5.7 2.3---- 0.0------------
1999-07-16 15.9 21.1 11.2 8.0 80.3- 8.0 2.0---- 0.7------------
1999-07-15 17.3 21.0 13.0 12.7 81.3- 8.0 4.7---- 0.1------------
1999-07-14 20.4 25.3 17.8 16.8 86.5- 8.0 2.7---- 29.4------------
1999-07-13 22.4 28.2 17.3 14.2 68.3- 8.0 2.7---- 0.0------------
1999-07-12 22.0 28.6 14.3 9.5 64.8- 3.0 3.3---- 0.0------------
1999-07-11 21.1 27.4 11.9 6.7 63.0- 2.7 4.3---- 0.0------------
1999-07-10 20.9 25.5 14.5 12.2 59.5- 3.3 4.7---- 0.0------------
1999-07-09 20.1 25.3 15.0 13.8 73.3- 8.0 5.0---- 0.0------------
1999-07-08 17.9 21.0 15.1 13.4 94.3- 8.0 4.0---- 1.8------------
1999-07-07 19.9 23.3 16.4 16.6 88.0- 8.0 3.3---- 0.0------------
1999-07-06 24.8 31.6 19.3 16.9 77.0- 4.3 2.3---- 4.5------------
1999-07-05 25.7 32.0 18.5 16.0 72.0- 5.0 3.0---- 0.0------------
1999-07-04 24.3 30.4 15.0 10.9 64.5- 4.0 3.0---- 0.0------------
1999-07-03 20.7 25.5 13.7 10.9 72.5- 2.7 2.0---- 0.0------------
1999-07-02 19.7 23.8 16.8 15.0 83.3- 6.3 1.7---- 0.0------------
1999-07-01 20.3 26.3 12.2 9.6 81.5- 7.7 1.0---- 0.0------------
1999-06-30 19.7 25.1 12.3 9.1 77.8- 7.0 2.0---- 0.0------------
1999-06-29 20.5 26.3 15.9 14.1 75.3- 7.3 3.7---- 0.0------------
1999-06-28 22.2 28.1 13.8 9.7 68.3- 3.3 2.7---- 0.0------------
1999-06-27 20.3 25.5 13.0 10.7 65.8- 4.3 2.7---- 0.0------------
1999-06-26 16.4 21.1 10.1 6.7 77.8- 6.0 2.0---- 0.0------------
1999-06-25 13.8 17.3 10.3 8.3 91.3- 8.0 1.3---- 11.1------------
1999-06-24 13.6 18.8 9.3 7.8 84.8- 8.0 2.3---- 3.3------------
1999-06-23 11.1 12.4 9.8 9.3 96.8- 8.0 5.3---- 8.8------------
1999-06-22 13.8 18.5 12.2 11.3 95.3- 8.0 4.7---- 29.7------------
1999-06-21 19.0 22.4 16.4 14.7 84.0- 8.0 4.0---- 1.7------------
1999-06-20 19.0 23.2 15.3 13.7 90.8- 8.0 2.3---- 0.0------------
1999-06-19 20.6 25.5 15.5 14.1 86.0- 6.7 1.7---- 0.0------------
1999-06-18 18.1 20.8 16.2 15.6 85.5- 8.0 4.3---- 2.5------------
1999-06-17 19.2 22.7 15.8 15.1 88.3- 8.0 2.0---- 3.7------------
1999-06-16 18.0 21.0 16.2 15.4 94.3- 8.0 2.7---- 3.5------------
307.4 ms

 

Źródłem pochodzenia danych jest Instytut Meteorologii i Gospodarki Wodnej – Państwowy Instytut Badawczy. Dane Instytutu Meteorologii i Gospodarki Wodnej – Państwowego Instytutu Badawczego zostały przetworzone.

Dane źródłowe można odnaleźć na stronie https://dane.imgw.pl